Warning: Javascript must be enabled to use all the features on this page!


Page Loading - Please Wait...

Click to hideNews Bulletins

Peak Streamflow for the Nation

USGS 07340500 Cossatot River near DeQueen, AR

Sevier County, Arkansas
Hydrologic Unit Code 11140109
Latitude  34°02'42", Longitude  94°12'45" NAD83
Drainage area 361  square miles
Gage datum 335.93 feet above NAVD88
Output formats
Table
Graph
Tab-separated file
peakfq (watstore) format
Reselect output format
Water
Year
Date Gage
Height
(feet)
Stream-
flow
(cfs)
1938 1938-01-24 19.70 36,300
1939 1939-04-16 19.70 36,300
1940 1940-05-18 17.94 23,700
1941 1941-07-14 15.08 10,100
1942 1942-09-09 18.56 28,400
1943 1942-12-27 14.30 9,520
1944 1944-05-02 18.70 29,100
1945 1945-03-30 20.20 43,300
1946 1946-05-25 19.96 41,200
1947 1947-08-28 20.47 46,900
1948 1948-01-01 18.30 26,300
1949 1949-01-24 19.76 39,400
1950 1950-09-20 20.14 42,500
1951 1951-07-03 16.49 15,600
1952 1952-04-22 18.00 24,200
1953 1953-05-12 19.16 33,100
1954 1954-05-02 16.57 16,100
1955 1955-03-21 17.25 19,200
1956 1956-02-18 16.20 14,400
1957 1957-04-27 17.82 22,800
1958 1958-05-03 18.56 29,200
1959 1958-11-17 18.85 30,100
1960 1960-05-20 19.12 32,600
1961 1961-05-06 20.70 62,000
1962 1961-11-23 15.66 12,600
1963 1963-03-11 14.55 10,100
1964 1964-04-24 19.12 37,500
1965 1965-02-10 16.24 14,800
1966 1966-04-26 18.40 28,400
1967 1967-05-06 18.70 32,500
1968 1968-05-13 22.60 122,000
1969 1969-01-30 20.82 74,8005
1970 1970-03-03 18.07 30,7005
1971 1970-10-27 15.29 13,9005
1972 1971-12-10 21.88 103,000
1973 1973-04-23 19.06 39,1005
1974 1973-10-13 18.05 26,5005
1975 1975-02-01 13.93 9,5005
1976 1976-03-08 10.53 4,0606
1977 1977-03-28 15.84 16,4006
1978 1978-03-07 9.24 2,9006
1979 1979-03-30 14.45 10,8006
1980 1980-09-28 13.78 9,2306
1981 1981-06-03 14.13 12,1006
1982 1982-06-16 10.29 4,2106
1983 1983-07-02 17.37 22,6006
1984 1984-05-03 10.26 4,2406
1985 1984-10-25 15.62 15,6006
1986 1986-04-04 13.09 7,9206
1987 1987-03-17 13.47 8,6206
1988 1987-12-26 12.13 6,3106
1989 1988-11-19 12.86 7,5106
1990 1990-03-08 14.77 15,4006
1991 1990-10-08 11.96 8,0806
1992 1991-12-09 11.81 7,7706
1993 1992-12-15 12.89 10,2006
1994 1993-12-03 16.46 21,5006
1995 1995-05-08 11.01 6,4206
1996 1996-04-15 7.65 1,9206
1997 1996-11-24 12.51 9,2906
1998 1997-12-24 9.43 3,8206
1999 1998-12-04 10.41 5,2806
2000 2000-06-21 10.18 4,9506
2001 2001-02-16 13.75 11,5006
2002 2001-12-17 12.47 8,8006
2003 2003-05-17 8.89 3,3406
2004 2004-05-14 8.92 3,3706
2005 2005-01-03 12.63 9,1106
2006 2006-03-20 12.62 9,0906
2007 2007-01-15 11.36 6,6906
2008 2008-04-04 14.43 13,2006
2009 2009-05-12 12.83 9,7906
2010 2009-10-13 12.02 8,2406
2011 2011-04-26 14.61 13,8006
2012 2011-11-22 11.04 6,5206
2013 2013-06-03 8.33 2,7506
2014 2014-09-11 10.88 6,3306
2015 2015-01-03 14.22 12,9006
2016 2016-04-29 16.04 17,6006
2017 2017-04-11 10.58 5,8406
2018 2018-03-01 14.91 14,5006
2019 2018-11-01 11.97 8,1306
2020 2020-08-28 14.23 12,8006
2021 2021-06-08 13.89 12,0006
?
  Peak Streamflow Qualification Codes.